Time;durP1;ratioP1;P1;durP2;ratioP2;P2;SDS_P1;SDS_P2;PMS_P1;PMS_P2;Temp;Humidity;BMP_temperature;BMP_pressure;BME280_temperature;BME280_humidity;BME280_pressure;Samples;Min_cycle;Max_cycle;Signal;HPM_P1;HPM_P2
2022/06/11 00:00:57;;;;;;;18.55;11.20;;;;;;;18.90;60.36;99404.31;1763112;80;21085;-66
2022/06/11 00:03:26;;;;;;;21.12;11.20;;;;;;;18.90;60.45;99402.92;1759022;81;21438;-64
2022/06/11 00:05:52;;;;;;;19.62;10.85;;;;;;;18.91;60.45;99407.34;1754375;80;21005;-66
2022/06/11 00:08:20;;;;;;;15.43;10.58;;;;;;;18.90;59.59;99404.31;1762729;81;21088;-65
2022/06/11 00:10:49;;;;;;;16.95;11.25;;;;;;;18.82;60.22;99406.81;1764486;81;21079;-64
2022/06/11 00:13:15;;;;;;;23.92;10.80;;;;;;;18.82;60.11;99399.83;1763975;79;21147;-64
2022/06/11 00:15:42;;;;;;;17.85;10.15;;;;;;;18.87;60.17;99409.88;1763216;81;21457;-65
2022/06/11 00:18:11;;;;;;;16.97;10.15;;;;;;;18.89;59.54;99407.48;1763271;81;21059;-64
2022/06/11 00:20:39;;;;;;;15.60;10.38;;;;;;;18.88;59.09;99400.31;1764464;80;21064;-64
2022/06/11 00:23:06;;;;;;;14.15;9.88;;;;;;;18.83;59.93;99397.27;1763384;80;21016;-64
2022/06/11 00:25:36;;;;;;;18.60;10.90;;;;;;;18.72;60.20;99395.15;1763166;81;21133;-65
2022/06/11 00:28:04;;;;;;;20.55;9.53;;;;;;;18.71;60.41;99399.10;1764281;80;20958;-66
2022/06/11 00:30:32;;;;;;;15.53;9.18;;;;;;;18.72;60.38;99401.31;1764005;81;21075;-65
2022/06/11 00:32:59;;;;;;;22.65;10.38;;;;;;;18.69;60.78;99398.70;1759053;81;21056;-63
2022/06/11 00:35:26;;;;;;;15.08;9.88;;;;;;;18.69;60.64;99404.86;1754141;81;21040;-65
2022/06/11 00:37:53;;;;;;;18.00;9.25;;;;;;;18.69;60.40;99400.67;1754154;81;21151;-64
2022/06/11 00:40:23;;;;;;;15.55;9.78;;;;;;;18.67;60.34;99401.64;1752860;80;21513;-63
2022/06/11 00:42:49;;;;;;;17.25;9.50;;;;;;;18.66;60.24;99404.23;1754370;81;21536;-64
2022/06/11 00:45:24;;;;;;;19.12;10.70;;;;;;;18.63;61.12;99403.59;1754718;81;21462;-64
2022/06/11 00:48:13;;;;;;;20.17;9.48;;;;;;;18.57;61.35;99401.72;1748940;81;21019;-64
2022/06/11 00:50:50;;;;;;;13.62;9.30;;;;;;;18.54;61.01;99406.08;1754307;81;21331;-63
2022/06/11 00:53:37;;;;;;;14.10;9.30;;;;;;;18.48;60.87;99411.75;1764511;80;21426;-65
2022/06/11 00:56:09;;;;;;;18.27;9.10;;;;;;;18.45;60.90;99414.72;1747632;81;21009;-64
2022/06/11 00:58:38;;;;;;;18.60;9.25;;;;;;;18.46;61.22;99409.92;1752943;80;21067;-66
2022/06/11 01:01:04;;;;;;;17.02;9.25;;;;;;;18.44;61.79;99412.30;1755187;81;20993;-64
2022/06/11 01:03:38;;;;;;;14.15;8.93;;;;;;;18.39;61.93;99407.05;1753906;81;21147;-64
2022/06/11 01:06:27;;;;;;;12.75;9.13;;;;;;;18.36;61.83;99415.56;1752549;80;21017;-65
2022/06/11 01:09:04;;;;;;;19.87;9.75;;;;;;;18.34;61.65;99416.52;1751459;81;20993;-64
2022/06/11 01:12:06;;;;;;;16.12;9.48;;;;;;;18.33;61.36;99426.08;1752350;81;21139;-65
2022/06/11 01:14:46;;;;;;;17.15;8.90;;;;;;;18.29;61.71;99423.84;1753731;81;21017;-64
2022/06/11 01:17:30;;;;;;;14.98;8.93;;;;;;;18.17;61.69;99417.89;1753941;81;21124;-64
2022/06/11 01:20:30;;;;;;;12.13;8.15;;;;;;;18.13;61.97;99422.02;1752270;81;20997;-65
2022/06/11 01:23:31;;;;;;;17.85;9.65;;;;;;;18.11;62.60;99422.36;1754482;81;21024;-64
2022/06/11 01:26:48;;;;;;;19.65;9.55;;;;;;;18.10;63.00;99426.92;1753412;80;20973;-65
2022/06/11 01:29:52;;;;;;;15.95;10.05;;;;;;;18.10;62.91;99426.92;1749826;81;20989;-64
2022/06/11 01:32:51;;;;;;;15.50;8.80;;;;;;;18.10;63.01;99431.10;1754744;81;21163;-65
2022/06/11 01:35:43;;;;;;;17.10;9.58;;;;;;;17.98;62.97;99433.50;1754487;81;21084;-63
2022/06/11 01:38:39;;;;;;;18.20;8.90;;;;;;;17.95;63.95;99437.81;1753235;81;21029;-64
2022/06/11 01:41:26;;;;;;;16.15;9.05;;;;;;;17.93;63.32;99439.38;1752324;81;21004;-65
2022/06/11 01:44:00;;;;;;;16.57;10.13;;;;;;;17.90;63.33;99442.31;1753721;81;21059;-62
2022/06/11 01:46:38;;;;;;;15.95;9.65;;;;;;;17.80;63.50;99439.56;1752845;81;21196;-63
2022/06/11 01:49:26;;;;;;;17.27;10.53;;;;;;;17.73;63.86;99438.85;1752323;80;20993;-63
2022/06/11 01:52:28;;;;;;;15.53;10.50;;;;;;;17.73;64.16;99439.42;1746036;80;21088;-63
2022/06/11 01:55:35;;;;;;;18.23;11.40;;;;;;;17.76;64.04;99436.71;1753560;81;21502;-65
2022/06/11 01:58:26;;;;;;;15.63;9.88;;;;;;;17.73;63.89;99439.42;1750999;81;21088;-65
2022/06/11 02:01:04;;;;;;;14.93;9.95;;;;;;;17.71;64.09;99434.23;1753608;81;21167;-64
2022/06/11 02:04:12;;;;;;;12.95;9.05;;;;;;;17.76;63.92;99440.89;1753153;81;21394;-64
2022/06/11 02:07:04;;;;;;;18.10;9.80;;;;;;;17.80;63.83;99449.31;1752842;81;22103;-64
2022/06/11 02:09:52;;;;;;;11.70;8.60;;;;;;;17.79;62.77;99441.33;1748391;80;21190;-63
2022/06/11 02:12:45;;;;;;;15.48;9.90;;;;;;;17.63;63.24;99442.25;1750309;81;21344;-64
2022/06/11 02:15:26;;;;;;;14.28;9.60;;;;;;;17.63;63.81;99450.60;1748522;81;21103;-64
2022/06/11 02:17:58;;;;;;;13.35;9.35;;;;;;;17.66;64.29;99446.29;1750184;81;21061;-62
2022/06/11 02:20:30;;;;;;;21.07;9.83;;;;;;;17.62;64.29;99449.79;1752707;81;21529;-66
2022/06/11 02:23:04;;;;;;;21.55;9.63;;;;;;;17.61;64.57;99455.73;1743569;81;21426;-64
2022/06/11 02:25:36;;;;;;;14.00;9.65;;;;;;;17.67;64.41;99453.45;1743903;81;21458;-66
2022/06/11 02:28:08;;;;;;;23.30;9.88;;;;;;;17.71;64.58;99452.34;1729499;82;21525;-64
2022/06/11 02:30:34;;;;;;;29.52;9.83;;;;;;;17.77;65.21;99454.23;1751741;81;21079;-65
2022/06/11 02:33:03;;;;;;;28.67;10.13;;;;;;;17.79;65.53;99455.26;1685992;81;21561;-64
2022/06/11 02:35:38;;;;;;;33.08;10.82;;;;;;;17.83;65.36;99458.32;1760733;81;21048;-64
2022/06/11 02:38:09;;;;;;;33.42;10.90;;;;;;;17.86;65.11;99461.75;1760806;81;21004;-65
2022/06/11 02:40:41;;;;;;;23.55;10.45;;;;;;;17.83;64.94;99458.32;1760732;81;21242;-65
2022/06/11 02:43:07;;;;;;;21.57;10.05;;;;;;;17.83;65.37;99457.50;1764631;80;21454;-66
2022/06/11 02:45:34;;;;;;;19.95;8.85;;;;;;;17.88;65.31;99459.41;1763295;80;21031;-63
2022/06/11 02:48:00;;;;;;;16.55;9.60;;;;;;;17.95;65.67;99464.30;1763788;81;21052;-64
2022/06/11 02:50:31;;;;;;;20.68;9.48;;;;;;;17.97;65.42;99460.55;1759713;80;21047;-63
2022/06/11 02:53:01;;;;;;;25.10;9.43;;;;;;;18.00;65.59;99462.59;1763759;81;21473;-64
2022/06/11 02:55:30;;;;;;;14.75;9.38;;;;;;;18.07;65.43;99468.06;1760210;81;20973;-63
2022/06/11 02:57:57;;;;;;;19.00;9.50;;;;;;;18.13;65.53;99465.22;1761386;81;21124;-64
2022/06/11 03:00:30;;;;;;;13.55;8.33;;;;;;;18.16;66.18;99464.47;1762645;81;21083;-64
2022/06/11 03:02:57;;;;;;;;;;;;;;;18.21;66.45;99461.38;1762425;81;21482;-64
2022/06/11 03:05:26;;;;;;;31.50;9.20;;;;;;;18.25;66.66;99466.40;1761054;81;21869;-65
2022/06/11 03:07:55;;;;;;;30.72;10.13;;;;;;;18.29;66.84;99468.46;1758513;79;21082;-64
2022/06/11 03:10:23;;;;;;;58.50;13.08;;;;;;;18.33;66.89;99473.48;1762472;81;21036;-64
2022/06/11 03:12:50;;;;;;;31.33;10.28;;;;;;;18.41;67.08;99474.42;1759170;81;21037;-65
2022/06/11 03:15:17;;;;;;;24.40;10.45;;;;;;;18.48;67.43;99472.53;1764533;81;21087;-65
2022/06/11 03:17:45;;;;;;;35.28;11.25;;;;;;;18.49;67.38;99472.73;1760289;81;21272;-63
2022/06/11 03:20:12;;;;;;;42.50;11.60;;;;;;;18.55;67.77;99465.44;1756892;81;21005;-64
2022/06/11 03:22:39;;;;;;;31.57;10.63;;;;;;;18.57;67.72;99472.85;1763589;81;21106;-66
2022/06/11 03:25:08;;;;;;;33.98;11.10;;;;;;;18.61;67.99;99469.53;1764128;81;20985;-64
2022/06/11 03:27:36;;;;;;;50.88;11.33;;;;;;;18.67;67.98;99470.00;1756396;81;21544;-64
2022/06/11 03:30:07;;;;;;;30.05;11.20;;;;;;;18.75;67.74;99470.92;1753458;81;21017;-65
2022/06/11 03:32:34;;;;;;;40.70;10.78;;;;;;;18.86;67.46;99470.47;1758937;81;21047;-64
2022/06/11 03:35:01;;;;;;;27.00;10.10;;;;;;;18.92;67.81;99464.76;1763824;80;21104;-65
2022/06/11 03:37:27;;;;;;;15.72;9.03;;;;;;;18.98;67.39;99471.63;1766472;80;21075;-63
2022/06/11 03:39:54;;;;;;;12.50;9.08;;;;;;;19.06;67.19;99468.91;1764198;80;21036;-65
2022/06/11 03:42:20;;;;;;;14.93;9.60;;;;;;;19.13;67.86;99480.20;1765351;80;22167;-64
2022/06/11 03:44:47;;;;;;;16.48;9.50;;;;;;;19.20;67.70;99478.91;1767839;80;21027;-65
2022/06/11 03:47:16;;;;;;;16.35;10.00;;;;;;;19.30;67.52;99479.41;1766888;80;21064;-65
2022/06/11 03:49:42;;;;;;;16.32;9.03;;;;;;;19.40;68.11;99480.13;1767207;80;21004;-64
2022/06/11 03:52:10;;;;;;;14.50;8.98;;;;;;;19.47;67.35;99480.80;1765892;80;21088;-67
2022/06/11 03:54:38;;;;;;;12.18;8.18;;;;;;;19.56;66.86;99479.91;1768633;80;21500;-62
2022/06/11 03:57:05;;;;;;;16.85;8.68;;;;;;;19.68;66.43;99474.64;1767645;80;21203;-64
2022/06/11 03:59:32;;;;;;;15.88;8.78;;;;;;;19.79;66.92;99476.75;1763928;80;21004;-64
2022/06/11 04:01:59;;;;;;;12.60;7.22;;;;;;;19.89;67.33;99481.61;1767117;80;20969;-64
2022/06/11 04:04:25;;;;;;;19.85;7.80;;;;;;;19.97;66.66;99477.48;1768346;80;21000;-64
2022/06/11 04:06:58;;;;;;;15.15;8.25;;;;;;;20.06;65.81;99479.41;1763849;79;21654;-64
2022/06/11 04:09:37;;;;;;;11.33;6.42;;;;;;;20.17;66.24;99478.90;1769316;80;20985;-63
2022/06/11 04:12:09;;;;;;;12.13;6.78;;;;;;;20.29;65.80;99485.38;1763013;80;21040;-63
2022/06/11 04:14:34;;;;;;;15.93;7.42;;;;;;;20.40;63.98;99486.86;1763523;80;21494;-65
2022/06/11 04:17:15;;;;;;;11.40;6.65;;;;;;;20.49;63.17;99489.33;1769149;80;21574;-64
2022/06/11 04:19:45;;;;;;;11.57;6.12;;;;;;;20.59;62.75;99491.37;1760788;80;22279;-63
2022/06/11 04:22:14;;;;;;;10.85;6.70;;;;;;;20.70;61.03;99491.45;1767339;80;20988;-63
2022/06/11 04:24:43;;;;;;;13.43;6.12;;;;;;;20.83;59.06;99489.12;1762908;80;21087;-64
2022/06/11 04:27:12;;;;;;;12.20;6.55;;;;;;;20.95;59.70;99488.02;1765922;80;21004;-63
2022/06/11 04:29:44;;;;;;;12.03;6.92;;;;;;;21.07;59.87;99488.89;1762862;80;21024;-63
2022/06/11 04:32:12;;;;;;;9.70;6.05;;;;;;;21.15;59.56;99493.32;1767770;80;21163;-63
2022/06/11 04:34:39;;;;;;;14.25;6.80;;;;;;;21.24;60.18;99496.55;1763857;80;20981;-64
2022/06/11 04:37:08;;;;;;;12.65;6.55;;;;;;;21.31;59.54;99502.77;1762132;81;21520;-64
2022/06/11 04:39:35;;;;;;;8.53;5.70;;;;;;;21.38;59.91;99498.60;1763539;81;21987;-64
2022/06/11 04:42:04;;;;;;;20.55;6.35;;;;;;;21.48;59.84;99493.41;1760761;81;21004;-64
2022/06/11 04:44:33;;;;;;;16.12;6.22;;;;;;;21.57;58.74;99495.84;1757071;81;21593;-64
2022/06/11 04:47:02;;;;;;;17.20;5.60;;;;;;;21.66;58.45;99496.28;1757583;81;21036;-64
2022/06/11 04:49:28;;;;;;;11.38;4.72;;;;;;;21.75;57.77;99498.09;1759003;81;21004;-63
2022/06/11 04:51:55;;;;;;;12.80;4.65;;;;;;;21.83;56.42;99494.75;1754719;81;21079;-64
2022/06/11 04:54:21;;;;;;;9.45;5.12;;;;;;;21.95;54.74;99487.95;1756053;80;21598;-65
2022/06/11 04:56:48;;;;;;;8.25;4.87;;;;;;;22.08;53.73;99493.95;1757498;81;21587;-63
2022/06/11 04:59:15;;;;;;;9.45;4.10;;;;;;;22.20;51.97;99491.36;1760264;81;22179;-64
2022/06/11 05:01:43;;;;;;;8.18;4.10;;;;;;;22.33;50.83;99495.17;1759750;80;20988;-63
2022/06/11 05:04:14;;;;;;;7.25;4.30;;;;;;;22.46;50.03;99495.55;1755871;80;21099;-63
2022/06/11 05:06:44;;;;;;;9.00;4.20;;;;;;;22.60;48.60;99493.33;1760818;80;20988;-63
2022/06/11 05:09:14;;;;;;;7.55;4.20;;;;;;;22.73;48.64;99492.32;1759905;81;21200;-63
2022/06/11 05:11:40;;;;;;;7.75;4.58;;;;;;;22.85;47.77;99496.11;1761797;81;21088;-63
2022/06/11 05:14:10;;;;;;;9.98;4.28;;;;;;;22.96;46.90;99496.69;1764560;80;21048;-63
2022/06/11 05:16:41;;;;;;;8.28;3.87;;;;;;;23.06;46.35;99504.87;1757948;80;21037;-63
2022/06/11 05:19:09;;;;;;;9.15;4.87;;;;;;;23.16;45.84;99504.03;1736535;81;21024;-64
2022/06/11 05:21:37;;;;;;;12.95;5.65;;;;;;;23.26;45.77;99502.98;1763434;81;21102;-64
2022/06/11 05:24:05;;;;;;;13.15;6.00;;;;;;;23.34;46.77;99500.33;1760516;81;21500;-64
2022/06/11 05:26:37;;;;;;;9.10;4.87;;;;;;;23.43;46.51;99503.55;1762487;81;21373;-63
2022/06/11 05:29:05;;;;;;;9.90;4.90;;;;;;;23.53;46.19;99508.91;1761224;80;21044;-63
2022/06/11 05:31:33;;;;;;;10.23;5.40;;;;;;;23.63;45.47;99507.87;1761907;80;21044;-63
2022/06/11 05:33:59;;;;;;;10.45;5.53;;;;;;;23.71;45.28;99508.80;1752080;81;21308;-64
2022/06/11 05:36:26;;;;;;;10.15;5.08;;;;;;;23.82;44.52;99512.15;1749362;81;21071;-65
2022/06/11 05:38:55;;;;;;;15.78;5.58;;;;;;;23.90;44.43;99515.10;1754620;81;20960;-64
2022/06/11 05:41:23;;;;;;;17.20;6.00;;;;;;;24.01;44.69;99510.82;1753482;81;21420;-64
2022/06/11 05:43:49;;;;;;;11.73;5.20;;;;;;;24.10;44.82;99511.77;1752857;81;21529;-65
2022/06/11 05:46:21;;;;;;;11.00;4.90;;;;;;;24.19;44.36;99514.92;1743903;81;22930;-66
2022/06/11 05:48:53;;;;;;;11.60;5.30;;;;;;;24.28;44.40;99514.45;1753143;81;21012;-66
2022/06/11 05:51:23;;;;;;;11.65;5.33;;;;;;;24.36;43.89;99515.81;1748536;81;21090;-65
2022/06/11 05:53:54;;;;;;;9.65;5.35;;;;;;;24.43;43.06;99512.91;1754629;81;20933;-65
2022/06/11 05:56:20;;;;;;;11.65;5.75;;;;;;;24.50;42.33;99507.82;1750100;81;21434;-66
2022/06/11 05:58:51;;;;;;;12.55;6.40;;;;;;;24.58;41.74;99505.75;1752896;81;21283;-65
2022/06/11 06:01:23;;;;;;;11.60;6.00;;;;;;;24.66;41.69;99506.67;1753158;81;21438;-64
2022/06/11 06:03:49;;;;;;;14.80;6.30;;;;;;;24.75;40.66;99508.20;1753047;81;20881;-65
2022/06/11 06:06:16;;;;;;;16.62;8.35;;;;;;;24.83;41.38;99511.13;1754865;81;20949;-64
2022/06/11 06:08:44;;;;;;;11.65;6.47;;;;;;;24.92;41.21;99510.03;1753523;81;21240;-65
2022/06/11 06:11:12;;;;;;;16.67;7.62;;;;;;;25.00;40.68;99503.73;1752503;81;21016;-63
2022/06/11 06:13:48;;;;;;;16.82;7.90;;;;;;;25.09;40.24;99508.05;1748906;81;21012;-65
2022/06/11 06:16:24;;;;;;;15.72;8.43;;;;;;;25.17;40.15;99509.56;1762858;80;21532;-62
2022/06/11 06:18:51;;;;;;;19.62;9.35;;;;;;;25.25;40.37;99513.89;1752738;81;20989;-63
2022/06/11 06:21:22;;;;;;;19.20;11.05;;;;;;;25.33;38.50;99512.39;1749635;81;21079;-63
2022/06/11 06:23:49;;;;;;;14.85;10.30;;;;;;;25.39;36.49;99507.27;1752922;81;21516;-64
2022/06/11 06:26:16;;;;;;;24.25;11.33;;;;;;;25.48;36.09;99505.95;1755209;81;21473;-62
2022/06/11 06:28:43;;;;;;;15.23;10.68;;;;;;;25.57;36.11;99507.66;1753630;81;20988;-62
2022/06/11 06:31:13;;;;;;;21.52;11.55;;;;;;;25.66;35.81;99509.95;1753221;80;21088;-63
2022/06/11 06:33:41;;;;;;;23.90;11.97;;;;;;;25.74;35.77;99512.85;1749708;81;20978;-65
2022/06/11 06:36:09;;;;;;;24.20;13.83;;;;;;;25.83;35.78;99504.50;1726747;82;21237;-65
2022/06/11 06:38:36;;;;;;;21.82;12.93;;;;;;;25.93;35.16;99513.38;1761474;81;21563;-64
2022/06/11 06:41:06;;;;;;;37.85;15.55;;;;;;;26.01;35.21;99506.42;1760980;81;21465;-64
2022/06/11 06:43:33;;;;;;;47.50;15.15;;;;;;;26.10;35.63;99510.73;1759658;81;21021;-65
2022/06/11 06:46:02;;;;;;;23.07;12.65;;;;;;;26.16;35.80;99503.36;1755893;81;20993;-65
2022/06/11 06:48:29;;;;;;;21.65;12.05;;;;;;;26.23;35.88;99511.72;1760364;81;22120;-65
2022/06/11 06:50:56;;;;;;;17.75;11.00;;;;;;;26.32;35.05;99514.00;1761776;81;21016;-64
2022/06/11 06:53:23;;;;;;;19.52;11.45;;;;;;;26.41;35.42;99514.08;1759998;81;21119;-64
2022/06/11 06:55:50;;;;;;;16.45;10.53;;;;;;;26.48;34.29;99509.70;1759908;81;21000;-65
2022/06/11 06:58:16;;;;;;;19.40;11.25;;;;;;;26.58;34.33;99511.54;1761650;81;21536;-64
2022/06/11 07:00:47;;;;;;;19.98;11.25;;;;;;;26.66;34.65;99512.22;1759928;81;21266;-64
2022/06/11 07:03:14;;;;;;;25.12;11.65;;;;;;;26.75;34.89;99511.63;1760228;81;21464;-65
2022/06/11 07:05:41;;;;;;;23.87;11.30;;;;;;;26.83;35.11;99513.72;1755595;81;21001;-64
2022/06/11 07:08:11;;;;;;;16.50;9.70;;;;;;;26.91;34.78;99519.41;1759912;80;21005;-64
2022/06/11 07:10:40;;;;;;;18.42;10.08;;;;;;;26.98;33.99;99519.28;1761900;81;21020;-63
2022/06/11 07:13:07;;;;;;;20.52;10.48;;;;;;;27.07;33.46;99515.11;1760480;81;21256;-63
2022/06/11 07:15:33;;;;;;;17.45;9.50;;;;;;;27.15;33.64;99515.75;1759676;81;21422;-65
2022/06/11 07:18:07;;;;;;;13.83;7.62;;;;;;;27.22;34.23;99515.61;1765560;80;21037;-65
2022/06/11 07:20:37;;;;;;;15.15;7.60;;;;;;;27.29;33.13;99521.13;1761765;81;21064;-67
2022/06/11 07:23:22;;;;;;;11.35;6.87;;;;;;;27.38;32.41;99521.92;1756368;81;21028;-65
2022/06/11 07:25:52;;;;;;;7.92;5.90;;;;;;;27.44;32.02;99514.54;1752471;81;21162;-67
2022/06/11 07:28:30;;;;;;;20.08;8.03;;;;;;;27.53;31.88;99521.63;1761742;81;21000;-65
2022/06/11 07:31:00;;;;;;;16.50;7.90;;;;;;;27.60;31.47;99522.89;1760998;81;21544;-65
2022/06/11 07:33:29;;;;;;;14.25;7.42;;;;;;;27.66;31.19;99517.49;1760612;81;21043;-64
2022/06/11 07:35:55;;;;;;;15.05;7.28;;;;;;;27.73;31.00;99515.15;1755527;81;21025;-63
2022/06/11 07:38:22;;;;;;;10.78;6.62;;;;;;;27.80;30.35;99516.41;1748782;81;21166;-63
2022/06/11 07:40:48;;;;;;;15.78;8.40;;;;;;;27.87;30.39;99514.83;1753905;81;20977;-63
2022/06/11 07:43:17;;;;;;;16.07;8.45;;;;;;;27.94;30.06;99522.36;1755058;81;21036;-66
2022/06/11 07:45:46;;;;;;;13.78;8.93;;;;;;;28.02;30.18;99511.64;1753137;81;21053;-64
2022/06/11 07:48:13;;;;;;;19.40;8.63;;;;;;;28.09;30.35;99509.26;1753986;80;21080;-63
2022/06/11 07:50:43;;;;;;;9.93;6.25;;;;;;;28.16;30.95;99514.75;1755287;81;21719;-65
2022/06/11 07:53:11;;;;;;;24.20;7.62;;;;;;;28.23;31.01;99513.17;1753942;81;21020;-62
2022/06/11 07:55:39;;;;;;;12.70;6.65;;;;;;;28.30;30.91;99519.27;1752733;81;21525;-64
2022/06/11 07:58:07;;;;;;;14.25;6.30;;;;;;;28.36;29.75;99516.70;1754706;80;21490;-63
2022/06/11 08:00:37;;;;;;;11.40;7.20;;;;;;;28.40;28.90;99516.02;1754253;81;21560;-64
2022/06/11 08:03:06;;;;;;;16.97;9.43;;;;;;;28.46;29.26;99510.58;1753445;81;21153;-64
2022/06/11 08:05:35;;;;;;;23.65;9.08;;;;;;;28.53;29.63;99517.48;1752987;80;21009;-66
2022/06/11 08:08:05;;;;;;;16.05;7.10;;;;;;;28.59;30.34;99514.31;1754864;81;20989;-64
2022/06/11 08:10:35;;;;;;;7.62;4.25;;;;;;;28.65;30.89;99511.10;1754646;81;21323;-64
2022/06/11 08:13:03;;;;;;;4.40;2.47;;;;;;;28.73;30.27;99508.08;1752871;81;21013;-63
2022/06/11 08:15:30;;;;;;;6.20;2.95;;;;;;;28.78;29.69;99513.98;1753627;80;21324;-64
2022/06/11 08:17:59;;;;;;;7.00;3.40;;;;;;;28.86;29.78;99510.95;1754874;81;21052;-64
2022/06/11 08:20:28;;;;;;;7.33;3.75;;;;;;;28.95;30.08;99512.50;1753222;81;21056;-64
2022/06/11 08:22:54;;;;;;;9.85;4.33;;;;;;;29.00;29.19;99516.88;1753286;80;20997;-64
2022/06/11 08:25:23;;;;;;;7.33;4.25;;;;;;;29.02;27.85;99512.95;1755224;81;21004;-63
2022/06/11 08:27:50;;;;;;;9.13;4.30;;;;;;;29.03;28.11;99517.40;1753498;81;21157;-63
2022/06/11 08:30:20;;;;;;;13.32;5.20;;;;;;;29.06;28.38;99511.44;1752510;80;21064;-64
2022/06/11 08:32:46;;;;;;;20.37;5.20;;;;;;;29.09;28.24;99513.40;1749693;81;21513;-64
2022/06/11 08:35:13;;;;;;;9.90;4.80;;;;;;;28.99;28.52;99512.44;1753681;80;21059;-64
2022/06/11 08:37:40;;;;;;;8.50;5.17;;;;;;;29.00;29.70;99509.80;1754889;81;21087;-64
2022/06/11 08:40:31;;;;;;;13.45;5.62;;;;;;;29.10;29.56;99511.53;1753126;81;21150;-66
2022/06/11 08:43:02;;;;;;;10.35;5.50;;;;;;;29.21;29.14;99510.39;1753438;81;21017;-64
2022/06/11 08:45:40;;;;;;;7.20;4.70;;;;;;;29.32;28.68;99509.48;1734902;81;21045;-63
2022/06/11 08:48:15;;;;;;;13.40;5.78;;;;;;;29.42;29.13;99506.75;1753113;81;21004;-64
2022/06/11 08:50:57;;;;;;;23.77;6.00;;;;;;;29.49;28.93;99507.97;1751022;81;21009;-64
2022/06/11 08:53:23;;;;;;;8.33;4.80;;;;;;;29.53;28.01;99502.98;1717569;80;21208;-64
2022/06/11 08:55:50;;;;;;;9.10;5.55;;;;;;;29.53;27.92;99499.50;1754519;80;20977;-64
2022/06/11 08:58:37;;;;;;;8.38;4.72;;;;;;;29.57;27.44;99504.27;1754344;81;21143;-63
2022/06/11 09:01:27;;;;;;;8.30;5.58;;;;;;;29.42;26.55;99501.08;1746394;81;21063;-64
2022/06/11 09:04:11;;;;;;;8.05;4.45;;;;;;;29.30;26.30;99495.56;1751227;81;21008;-63
2022/06/11 09:06:49;;;;;;;12.25;4.72;;;;;;;29.27;27.59;99500.11;1752516;81;21526;-64
2022/06/11 09:09:35;;;;;;;9.63;5.40;;;;;;;29.35;28.79;99500.06;1754745;81;21024;-64
2022/06/11 09:12:31;;;;;;;6.03;4.67;;;;;;;29.45;29.70;99505.23;1754792;81;21477;-63
2022/06/11 09:15:08;;;;;;;11.40;4.97;;;;;;;29.60;28.59;99499.94;1753430;81;21057;-62
2022/06/11 09:18:10;;;;;;;9.75;4.87;;;;;;;29.79;28.22;99498.75;1751660;81;21079;-65
2022/06/11 09:20:54;;;;;;;;;;;;;;;29.93;27.38;99496.70;1755723;81;21191;-62
2022/06/11 09:23:50;;;;;;;9.20;5.12;;;;;;;30.06;26.16;99500.31;1753335;81;20240;-63
2022/06/11 09:26:26;;;;;;;10.53;5.03;;;;;;;30.03;24.20;99502.65;1754313;81;21584;-62
2022/06/11 09:29:30;;;;;;;7.67;5.55;;;;;;;29.92;25.10;99493.70;1753277;81;20997;-64
2022/06/11 09:32:09;;;;;;;6.42;4.40;;;;;;;29.87;24.87;99491.59;1754615;81;21119;-64
2022/06/11 09:34:52;;;;;;;9.43;4.58;;;;;;;29.89;24.78;99491.13;1751516;81;21187;-63
2022/06/11 09:37:36;;;;;;;6.92;5.33;;;;;;;29.95;24.72;99489.94;1761307;80;21044;-63
2022/06/11 09:40:19;;;;;;;7.65;5.08;;;;;;;29.97;25.77;99489.67;1744091;81;21051;-64
2022/06/11 09:43:14;;;;;;;8.40;5.08;;;;;;;30.01;24.91;99489.53;1763035;80;21098;-65
2022/06/11 09:46:04;;;;;;;10.18;5.00;;;;;;;30.09;25.95;99483.80;1764604;81;21040;-63
2022/06/11 09:48:55;;;;;;;11.20;4.80;;;;;;;30.23;27.22;99485.38;1758782;81;21103;-64
2022/06/11 09:51:59;;;;;;;7.53;5.30;;;;;;;30.37;26.89;99484.09;1762669;81;21083;-64
2022/06/11 09:54:58;;;;;;;8.95;5.85;;;;;;;30.49;26.37;99476.78;1764567;79;21036;-63
2022/06/11 09:57:58;;;;;;;8.33;5.35;;;;;;;30.61;25.18;99479.41;1763583;81;21128;-64
2022/06/11 10:00:33;;;;;;;9.90;5.17;;;;;;;30.75;25.82;99481.57;1740430;81;20992;-65
2022/06/11 10:05:50;;;;;;;6.15;5.15;;;;;;;30.87;23.52;99475.69;1764115;81;21000;-66
2022/06/11 10:08:40;;;;;;;10.53;5.12;;;;;;;30.93;23.88;99473.05;1761472;81;21036;-64
2022/06/11 10:11:17;;;;;;;7.87;4.92;;;;;;;30.98;23.77;99472.45;1759028;81;21055;-65
2022/06/11 10:16:48;;;;;;;14.68;5.87;;;;;;;31.07;23.32;99469.66;1764444;81;21471;-64
2022/06/11 10:19:39;;;;;;;5.58;4.58;;;;;;;31.10;23.01;99472.22;1763247;81;21027;-64
2022/06/11 10:22:34;;;;;;;11.08;5.72;;;;;;;31.09;22.96;99468.57;1743005;80;21090;-65
2022/06/11 10:25:15;;;;;;;16.47;6.03;;;;;;;31.10;23.36;99460.19;1762785;81;21055;-65
2022/06/11 10:27:53;;;;;;;10.50;5.55;;;;;;;31.14;22.79;99460.05;1764968;80;21499;-65
2022/06/11 10:30:43;;;;;;;11.00;5.17;;;;;;;31.16;22.60;99458.17;1711586;81;21271;-64
2022/06/11 10:33:27;;;;;;;10.85;5.67;;;;;;;31.25;23.20;99458.23;1759279;81;21005;-64
2022/06/11 10:36:11;;;;;;;10.13;4.92;;;;;;;31.30;22.50;99452.56;1739321;81;22054;-64
2022/06/11 10:38:58;;;;;;;14.23;5.33;;;;;;;31.36;23.57;99451.33;1710874;83;21070;-65
2022/06/11 10:41:54;;;;;;;13.80;5.50;;;;;;;31.44;24.66;99454.09;1715815;83;21083;-65
2022/06/11 10:44:45;;;;;;;8.93;6.03;;;;;;;31.50;24.78;99449.98;1717026;83;21504;-65
2022/06/11 10:47:32;;;;;;;19.45;5.90;;;;;;;31.59;24.79;99444.34;1713147;83;21064;-65
2022/06/11 10:50:16;;;;;;;14.50;5.40;;;;;;;31.66;24.65;99451.17;1715012;83;21020;-63
2022/06/11 10:53:08;;;;;;;9.03;5.03;;;;;;;31.72;24.28;99447.06;1716093;83;20996;-65
2022/06/11 10:55:58;;;;;;;8.88;6.10;;;;;;;31.81;25.52;99439.98;1716975;83;21035;-62
2022/06/11 10:58:49;;;;;;;7.10;4.80;;;;;;;31.90;24.65;99440.61;1716909;83;21124;-63
2022/06/11 11:01:36;;;;;;;9.18;5.00;;;;;;;32.00;25.25;99445.75;1716946;83;21028;-64
2022/06/11 11:04:34;;;;;;;7.15;4.58;;;;;;;32.05;23.92;99440.86;1714789;83;21531;-66
2022/06/11 11:07:19;;;;;;;7.72;5.15;;;;;;;32.09;23.98;99437.83;1706461;83;21052;-63
2022/06/11 11:09:47;;;;;;;9.83;5.08;;;;;;;32.06;24.06;99438.78;1717290;83;21147;-65
2022/06/11 11:12:26;;;;;;;11.70;5.75;;;;;;;32.04;22.34;99429.94;1716722;83;21106;-63
2022/06/11 11:15:13;;;;;;;13.90;6.30;;;;;;;32.00;22.03;99430.09;1716975;83;21095;-65
2022/06/11 11:17:52;;;;;;;13.15;5.67;;;;;;;32.02;23.33;99431.81;1715028;83;21079;-63
2022/06/11 11:20:39;;;;;;;11.38;6.12;;;;;;;32.05;23.45;99428.66;1714420;83;21032;-63
2022/06/11 11:23:32;;;;;;;24.85;6.85;;;;;;;31.96;22.34;99422.28;1716385;83;21139;-63
2022/06/11 11:26:29;;;;;;;16.55;5.92;;;;;;;31.93;23.10;99430.35;1713689;83;22135;-64
2022/06/11 11:29:18;;;;;;;23.77;6.10;;;;;;;32.01;21.89;99426.59;1717099;83;21040;-64
2022/06/11 11:31:54;;;;;;;9.85;5.58;;;;;;;32.10;22.43;99420.92;1716256;83;21059;-65
2022/06/11 11:34:26;;;;;;;8.08;5.30;;;;;;;32.18;21.30;99417.91;1714789;83;21457;-65
2022/06/11 11:37:18;;;;;;;6.62;5.00;;;;;;;32.22;20.24;99412.06;1729677;81;20997;-65
2022/06/11 11:39:55;;;;;;;11.15;5.45;;;;;;;32.25;20.64;99415.39;1754649;81;21150;-65
2022/06/11 11:42:36;;;;;;;8.53;5.22;;;;;;;32.27;20.69;99410.02;1751865;81;20993;-64
2022/06/11 11:45:28;;;;;;;9.40;4.95;;;;;;;32.31;20.21;99416.33;1754304;81;21001;-64
2022/06/11 11:48:02;;;;;;;9.23;6.07;;;;;;;32.35;21.41;99409.67;1752557;81;20998;-65
2022/06/11 11:50:35;;;;;;;7.10;5.30;;;;;;;32.27;21.30;99410.63;1755046;81;20985;-64
2022/06/11 11:53:13;;;;;;;7.28;5.50;;;;;;;32.21;21.87;99407.61;1754552;81;21230;-63
2022/06/11 11:55:42;;;;;;;8.25;5.25;;;;;;;32.15;22.64;99413.80;1753329;81;21515;-66
2022/06/11 11:58:20;;;;;;;9.90;5.15;;;;;;;32.17;22.56;99414.12;1752698;80;21044;-67
2022/06/11 12:01:01;;;;;;;6.35;4.90;;;;;;;32.09;22.24;99403.65;1752530;81;20977;-65
2022/06/11 12:03:38;;;;;;;7.50;4.87;;;;;;;32.05;21.99;99401.61;1754188;81;20970;-64
2022/06/11 12:06:09;;;;;;;9.35;5.53;;;;;;;31.96;21.19;99400.92;1752960;81;21826;-65
2022/06/11 12:08:45;;;;;;;8.10;4.55;;;;;;;31.79;21.52;99399.80;1753041;81;21548;-64